QFA1003 YMML-YMHB
Flight info
| Callsign | QFA1003 |
|---|---|
| Flight time | 0h 56m |
| Altitude | 39000 |
| Route | ML H169 IRSOM V33 TASUM |
| Aircraft | B738/M-SDE2E3FGHIRWXY/LB1 |
Departure
| Time | 2026-04-25 22:09 |
|---|---|
| Airport | Melbourne Airport (YMML) |
Arrival
| Time | 2026-04-25 23:06 |
|---|---|
| Airport | Hobart International Airport (YMHB) |
| Time | Latitude | Longitude | Altitude | Speed | Heading |
|---|---|---|---|---|---|
| 2026-04-25 21:35 | -37.66819 | 144.85165 | 392 ft | 0 kts | 82° |
| 2026-04-25 21:58 | -37.66820 | 144.85160 | 396 ft | 2 kts | 82° |
| 2026-04-25 21:58 | -37.66822 | 144.85136 | 396 ft | 3 kts | 89° |
| 2026-04-25 21:58 | -37.66821 | 144.85111 | 395 ft | 3 kts | 105° |
| 2026-04-25 21:59 | -37.66813 | 144.85091 | 391 ft | 3 kts | 147° |
| 2026-04-25 21:59 | -37.66802 | 144.85087 | 396 ft | 2 kts | 183° |
| 2026-04-25 21:59 | -37.66782 | 144.85088 | 396 ft | 3 kts | 181° |
| 2026-04-25 22:00 | -37.66742 | 144.85087 | 398 ft | 3 kts | 176° |
| 2026-04-25 22:00 | -37.66721 | 144.85085 | 397 ft | 3 kts | 174° |
| 2026-04-25 22:00 | -37.66701 | 144.85082 | 398 ft | 3 kts | 173° |
| 2026-04-25 22:00 | -37.66681 | 144.85079 | 398 ft | 3 kts | 171° |
| 2026-04-25 22:01 | -37.66661 | 144.85074 | 399 ft | 3 kts | 169° |
| 2026-04-25 22:01 | -37.66643 | 144.85071 | 400 ft | 2 kts | 171° |
| 2026-04-25 22:01 | -37.66628 | 144.85068 | 399 ft | 3 kts | 182° |
| 2026-04-25 22:01 | -37.66621 | 144.85068 | 399 ft | 3 kts | 191° |
| 2026-04-25 22:02 | -37.66596 | 144.85088 | 402 ft | 3 kts | 244° |
| 2026-04-25 22:02 | -37.66589 | 144.85112 | 399 ft | 3 kts | 261° |
| 2026-04-25 22:02 | -37.66587 | 144.85135 | 401 ft | 2 kts | 262° |
| 2026-04-25 22:02 | -37.66587 | 144.85139 | 401 ft | 1 kts | 262° |
| 2026-04-25 22:04 | -37.66587 | 144.85137 | 401 ft | 2 kts | 262° |
| 2026-04-25 22:04 | -37.66589 | 144.85102 | 402 ft | 10 kts | 273° |
| 2026-04-25 22:05 | -37.66531 | 144.84995 | 405 ft | 14 kts | 266° |
| 2026-04-25 22:05 | -37.66542 | 144.84901 | 405 ft | 18 kts | 263° |
| 2026-04-25 22:05 | -37.66616 | 144.84778 | 402 ft | 20 kts | 220° |
| 2026-04-25 22:05 | -37.66652 | 144.84617 | 399 ft | 19 kts | 262° |
| 2026-04-25 22:06 | -37.66672 | 144.84448 | 397 ft | 19 kts | 261° |
| 2026-04-25 22:06 | -37.66692 | 144.84283 | 389 ft | 19 kts | 261° |
| 2026-04-25 22:06 | -37.66711 | 144.84122 | 394 ft | 18 kts | 261° |
| 2026-04-25 22:06 | -37.66757 | 144.83985 | 393 ft | 18 kts | 199° |
| 2026-04-25 22:07 | -37.66894 | 144.84003 | 387 ft | 22 kts | 171° |
| 2026-04-25 22:07 | -37.67001 | 144.84023 | 384 ft | 24 kts | 172° |
| 2026-04-25 22:07 | -37.67235 | 144.84065 | 377 ft | 26 kts | 171° |
| 2026-04-25 22:07 | -37.67404 | 144.84098 | 373 ft | 24 kts | 171° |
| 2026-04-25 22:08 | -37.67564 | 144.84128 | 370 ft | 23 kts | 171° |
| 2026-04-25 22:08 | -37.67719 | 144.84157 | 366 ft | 23 kts | 173° |
| 2026-04-25 22:08 | -37.67867 | 144.84144 | 360 ft | 20 kts | 235° |
| 2026-04-25 22:08 | -37.67884 | 144.83989 | 354 ft | 12 kts | 282° |
| 2026-04-25 22:09 | -37.67806 | 144.83955 | 360 ft | 25 kts | 352° |
| 2026-04-25 22:09 | -37.67379 | 144.83875 | 370 ft | 97 kts | 351° |
| 2026-04-25 22:09 | -37.66514 | 144.83712 | 440 ft | 149 kts | 353° |
| 2026-04-25 22:09 | -37.65487 | 144.83532 | 1227 ft | 145 kts | 352° |
| 2026-04-25 22:10 | -37.64552 | 144.83347 | 2289 ft | 130 kts | 351° |
| 2026-04-25 22:10 | -37.63636 | 144.83167 | 2977 ft | 145 kts | 350° |
| 2026-04-25 22:10 | -37.62524 | 144.83446 | 3305 ft | 188 kts | 26° |
| 2026-04-25 22:10 | -37.61578 | 144.84809 | 3534 ft | 230 kts | 59° |
| 2026-04-25 22:11 | -37.61336 | 144.86919 | 3942 ft | 260 kts | 94° |
| 2026-04-25 22:11 | -37.62093 | 144.89096 | 4424 ft | 284 kts | 131° |
| 2026-04-25 22:11 | -37.63720 | 144.90453 | 5398 ft | 281 kts | 161° |
| 2026-04-25 22:11 | -37.65581 | 144.91126 | 6335 ft | 283 kts | 169° |
| 2026-04-25 22:12 | -37.67465 | 144.91645 | 7201 ft | 285 kts | 170° |
| 2026-04-25 22:12 | -37.69412 | 144.92176 | 8071 ft | 289 kts | 169° |
| 2026-04-25 22:12 | -37.71377 | 144.92747 | 8970 ft | 290 kts | 168° |
| 2026-04-25 22:12 | -37.72687 | 144.93148 | 9544 ft | 293 kts | 168° |
| 2026-04-25 22:13 | -37.75367 | 144.94011 | 10475 ft | 306 kts | 167° |
| 2026-04-25 22:13 | -37.77517 | 144.94732 | 10673 ft | 332 kts | 166° |
| 2026-04-25 22:13 | -37.79827 | 144.95529 | 10954 ft | 352 kts | 166° |
| 2026-04-25 22:13 | -37.82223 | 144.96373 | 11568 ft | 360 kts | 166° |
| 2026-04-25 22:14 | -37.84651 | 144.97240 | 12295 ft | 365 kts | 166° |
| 2026-04-25 22:14 | -37.87112 | 144.98125 | 13061 ft | 370 kts | 166° |
| 2026-04-25 22:14 | -37.89607 | 144.99026 | 13820 ft | 376 kts | 166° |
| 2026-04-25 22:14 | -37.92141 | 144.99943 | 14523 ft | 381 kts | 165° |
| 2026-04-25 22:15 | -37.94677 | 145.00863 | 15224 ft | 386 kts | 165° |
| 2026-04-25 22:15 | -37.97278 | 145.01807 | 15946 ft | 392 kts | 165° |
| 2026-04-25 22:15 | -37.99916 | 145.02766 | 16645 ft | 397 kts | 165° |
| 2026-04-25 22:16 | -38.05311 | 145.04729 | 18020 ft | 408 kts | 165° |
| 2026-04-25 22:16 | -38.08056 | 145.05729 | 18683 ft | 413 kts | 165° |
| 2026-04-25 22:16 | -38.10835 | 145.06742 | 19294 ft | 417 kts | 165° |
| 2026-04-25 22:16 | -38.13638 | 145.07765 | 19930 ft | 421 kts | 165° |
| 2026-04-25 22:17 | -38.16466 | 145.08797 | 20561 ft | 424 kts | 165° |
| 2026-04-25 22:17 | -38.19313 | 145.09838 | 21189 ft | 428 kts | 165° |
| 2026-04-25 22:17 | -38.22182 | 145.10887 | 21782 ft | 431 kts | 165° |
| 2026-04-25 22:17 | -38.25083 | 145.11948 | 22363 ft | 435 kts | 165° |
| 2026-04-25 22:18 | -38.28003 | 145.13017 | 22939 ft | 439 kts | 165° |
| 2026-04-25 22:18 | -38.30962 | 145.14102 | 23525 ft | 442 kts | 165° |
| 2026-04-25 22:18 | -38.33894 | 145.15178 | 24025 ft | 446 kts | 165° |
| 2026-04-25 22:18 | -38.36886 | 145.16276 | 24504 ft | 448 kts | 165° |
| 2026-04-25 22:19 | -38.39884 | 145.17379 | 25004 ft | 450 kts | 165° |
| 2026-04-25 22:19 | -38.42902 | 145.18489 | 25498 ft | 452 kts | 165° |
| 2026-04-25 22:19 | -38.45932 | 145.19604 | 25959 ft | 454 kts | 165° |
| 2026-04-25 22:19 | -38.48980 | 145.20727 | 26407 ft | 457 kts | 165° |
| 2026-04-25 22:20 | -38.52039 | 145.21868 | 26838 ft | 459 kts | 164° |
| 2026-04-25 22:20 | -38.55088 | 145.23129 | 27287 ft | 462 kts | 162° |
| 2026-04-25 22:20 | -38.58133 | 145.24475 | 27712 ft | 464 kts | 162° |
| 2026-04-25 22:20 | -38.61182 | 145.25855 | 28129 ft | 466 kts | 162° |
| 2026-04-25 22:21 | -38.64251 | 145.27246 | 28531 ft | 469 kts | 162° |
| 2026-04-25 22:21 | -38.67341 | 145.28639 | 28935 ft | 471 kts | 162° |
| 2026-04-25 22:21 | -38.70439 | 145.30024 | 29316 ft | 473 kts | 162° |
| 2026-04-25 22:21 | -38.73552 | 145.31406 | 29693 ft | 475 kts | 162° |
| 2026-04-25 22:22 | -38.76684 | 145.32793 | 30067 ft | 477 kts | 162° |
| 2026-04-25 22:22 | -38.79785 | 145.34163 | 30405 ft | 479 kts | 162° |
| 2026-04-25 22:22 | -38.82938 | 145.35556 | 30700 ft | 480 kts | 162° |
| 2026-04-25 22:22 | -38.86105 | 145.36957 | 31000 ft | 482 kts | 162° |
| 2026-04-25 22:23 | -38.89274 | 145.38361 | 31334 ft | 482 kts | 162° |
| 2026-04-25 22:23 | -38.92367 | 145.39733 | 31761 ft | 480 kts | 163° |
| 2026-04-25 22:23 | -38.95511 | 145.41130 | 32218 ft | 477 kts | 163° |
| 2026-04-25 22:23 | -38.98646 | 145.42524 | 32632 ft | 476 kts | 163° |
| 2026-04-25 22:24 | -39.01774 | 145.43916 | 32988 ft | 475 kts | 163° |
| 2026-04-25 22:24 | -39.04908 | 145.45311 | 33360 ft | 475 kts | 163° |
| 2026-04-25 22:24 | -39.08029 | 145.46703 | 33759 ft | 473 kts | 163° |
| 2026-04-25 22:24 | -39.11136 | 145.48089 | 34164 ft | 472 kts | 163° |
| 2026-04-25 22:25 | -39.14234 | 145.49472 | 34487 ft | 471 kts | 163° |
| 2026-04-25 22:25 | -39.17287 | 145.50837 | 34771 ft | 470 kts | 163° |
| 2026-04-25 22:25 | -39.20374 | 145.52218 | 35075 ft | 470 kts | 163° |
| 2026-04-25 22:25 | -39.23464 | 145.53602 | 35390 ft | 469 kts | 163° |
| 2026-04-25 22:26 | -39.26547 | 145.54984 | 35702 ft | 468 kts | 163° |
| 2026-04-25 22:26 | -39.29623 | 145.56364 | 36003 ft | 468 kts | 163° |
| 2026-04-25 22:26 | -39.32697 | 145.57744 | 36296 ft | 467 kts | 163° |
| 2026-04-25 22:26 | -39.35761 | 145.59122 | 36587 ft | 467 kts | 163° |
| 2026-04-25 22:27 | -39.38837 | 145.60506 | 36842 ft | 466 kts | 163° |
| 2026-04-25 22:27 | -39.41902 | 145.61886 | 37122 ft | 466 kts | 163° |
| 2026-04-25 22:27 | -39.44926 | 145.63249 | 37403 ft | 465 kts | 163° |
| 2026-04-25 22:27 | -39.47985 | 145.64629 | 37675 ft | 465 kts | 163° |
| 2026-04-25 22:28 | -39.51049 | 145.66013 | 37934 ft | 465 kts | 163° |
| 2026-04-25 22:28 | -39.54102 | 145.67393 | 38196 ft | 464 kts | 163° |
| 2026-04-25 22:28 | -39.57154 | 145.68774 | 38440 ft | 464 kts | 163° |
| 2026-04-25 22:28 | -39.60207 | 145.70156 | 38673 ft | 464 kts | 163° |
| 2026-04-25 22:29 | -39.63252 | 145.71537 | 38897 ft | 464 kts | 163° |
| 2026-04-25 22:29 | -39.66297 | 145.72918 | 39091 ft | 463 kts | 163° |
| 2026-04-25 22:29 | -39.69343 | 145.74301 | 39173 ft | 465 kts | 163° |
| 2026-04-25 22:30 | -39.78500 | 145.78468 | 39170 ft | 465 kts | 163° |
| 2026-04-25 22:30 | -39.83602 | 145.80796 | 39175 ft | 463 kts | 164° |
| 2026-04-25 22:31 | -39.90648 | 145.84015 | 39177 ft | 460 kts | 164° |
| 2026-04-25 22:31 | -39.96688 | 145.86780 | 39179 ft | 460 kts | 164° |
| 2026-04-25 22:32 | -40.02730 | 145.89555 | 39177 ft | 460 kts | 164° |
| 2026-04-25 22:32 | -40.05747 | 145.90951 | 39280 ft | 461 kts | 163° |
| 2026-04-25 22:32 | -40.08779 | 145.92357 | 39243 ft | 462 kts | 162° |
| 2026-04-25 22:33 | -40.14871 | 145.95193 | 39185 ft | 466 kts | 162° |
| 2026-04-25 22:33 | -40.20945 | 145.98020 | 39180 ft | 467 kts | 162° |
| 2026-04-25 22:34 | -40.27080 | 146.00879 | 39178 ft | 468 kts | 162° |
| 2026-04-25 22:34 | -40.33228 | 146.03751 | 39181 ft | 469 kts | 162° |
| 2026-04-25 22:35 | -40.39394 | 146.06637 | 39175 ft | 470 kts | 162° |
| 2026-04-25 22:35 | -40.45556 | 146.09526 | 39182 ft | 470 kts | 162° |
| 2026-04-25 22:36 | -40.51724 | 146.12424 | 39183 ft | 470 kts | 162° |
| 2026-04-25 22:36 | -40.57849 | 146.15308 | 39186 ft | 470 kts | 162° |
| 2026-04-25 22:37 | -40.64003 | 146.18212 | 39174 ft | 469 kts | 162° |
| 2026-04-25 22:37 | -40.70165 | 146.21123 | 39180 ft | 469 kts | 162° |
| 2026-04-25 22:38 | -40.76309 | 146.24027 | 39182 ft | 469 kts | 162° |
| 2026-04-25 22:38 | -40.82415 | 146.26916 | 39187 ft | 469 kts | 162° |
| 2026-04-25 22:39 | -40.88558 | 146.29830 | 39187 ft | 469 kts | 162° |
| 2026-04-25 22:39 | -40.94707 | 146.32752 | 39187 ft | 469 kts | 162° |
| 2026-04-25 22:40 | -41.00856 | 146.35681 | 39042 ft | 472 kts | 162° |
| 2026-04-25 22:40 | -41.03974 | 146.37167 | 38463 ft | 476 kts | 162° |
| 2026-04-25 22:40 | -41.07075 | 146.38648 | 37891 ft | 473 kts | 162° |
| 2026-04-25 22:41 | -41.10163 | 146.40126 | 37308 ft | 470 kts | 162° |
| 2026-04-25 22:41 | -41.13235 | 146.41596 | 36727 ft | 468 kts | 162° |
| 2026-04-25 22:41 | -41.16289 | 146.43059 | 36122 ft | 466 kts | 162° |
| 2026-04-25 22:41 | -41.19292 | 146.44692 | 35541 ft | 466 kts | 158° |
| 2026-04-25 22:42 | -41.22231 | 146.46501 | 34900 ft | 466 kts | 156° |
| 2026-04-25 22:42 | -41.25153 | 146.48383 | 34231 ft | 466 kts | 155° |
| 2026-04-25 22:42 | -41.28028 | 146.50255 | 33464 ft | 467 kts | 156° |
| 2026-04-25 22:42 | -41.30986 | 146.52172 | 32729 ft | 466 kts | 156° |
| 2026-04-25 22:43 | -41.33879 | 146.54026 | 32093 ft | 465 kts | 156° |
| 2026-04-25 22:43 | -41.36773 | 146.55867 | 31607 ft | 459 kts | 156° |
| 2026-04-25 22:43 | -41.39648 | 146.57688 | 31100 ft | 455 kts | 157° |
| 2026-04-25 22:43 | -41.42492 | 146.59488 | 30596 ft | 451 kts | 157° |
| 2026-04-25 22:44 | -41.45317 | 146.61276 | 30077 ft | 447 kts | 157° |
| 2026-04-25 22:44 | -41.48114 | 146.63049 | 29537 ft | 442 kts | 157° |
| 2026-04-25 22:44 | -41.50874 | 146.64802 | 29029 ft | 437 kts | 157° |
| 2026-04-25 22:44 | -41.53607 | 146.66539 | 28531 ft | 432 kts | 157° |
| 2026-04-25 22:45 | -41.56279 | 146.68239 | 28031 ft | 428 kts | 157° |
| 2026-04-25 22:45 | -41.58957 | 146.69945 | 27545 ft | 425 kts | 157° |
| 2026-04-25 22:45 | -41.61624 | 146.71644 | 27052 ft | 423 kts | 157° |
| 2026-04-25 22:45 | -41.64269 | 146.73331 | 26569 ft | 421 kts | 157° |
| 2026-04-25 22:46 | -41.66930 | 146.75035 | 26094 ft | 427 kts | 156° |
| 2026-04-25 22:46 | -41.69650 | 146.76787 | 25615 ft | 439 kts | 156° |
| 2026-04-25 22:46 | -41.72409 | 146.78572 | 25105 ft | 439 kts | 156° |
| 2026-04-25 22:46 | -41.75148 | 146.80349 | 24598 ft | 436 kts | 156° |
| 2026-04-25 22:47 | -41.77866 | 146.82114 | 24106 ft | 432 kts | 156° |
| 2026-04-25 22:47 | -41.80569 | 146.83870 | 23557 ft | 430 kts | 156° |
| 2026-04-25 22:47 | -41.83252 | 146.85613 | 23011 ft | 427 kts | 156° |
| 2026-04-25 22:47 | -41.85922 | 146.87348 | 22480 ft | 424 kts | 156° |
| 2026-04-25 22:48 | -41.88524 | 146.89041 | 21984 ft | 420 kts | 156° |
| 2026-04-25 22:48 | -41.91181 | 146.90772 | 21486 ft | 417 kts | 156° |
| 2026-04-25 22:48 | -41.93746 | 146.92443 | 21016 ft | 414 kts | 156° |
| 2026-04-25 22:48 | -41.96328 | 146.94126 | 20536 ft | 411 kts | 156° |
| 2026-04-25 22:49 | -41.98891 | 146.95799 | 20062 ft | 409 kts | 156° |
| 2026-04-25 22:49 | -42.01448 | 146.97470 | 19589 ft | 407 kts | 156° |
| 2026-04-25 22:49 | -42.03988 | 146.99131 | 19109 ft | 405 kts | 156° |
| 2026-04-25 22:49 | -42.06525 | 147.00791 | 18629 ft | 405 kts | 156° |
| 2026-04-25 22:50 | -42.09051 | 147.02446 | 18101 ft | 404 kts | 156° |
| 2026-04-25 22:50 | -42.11574 | 147.04101 | 17598 ft | 402 kts | 156° |
| 2026-04-25 22:50 | -42.14082 | 147.05747 | 17107 ft | 399 kts | 156° |
| 2026-04-25 22:50 | -42.16564 | 147.07392 | 16634 ft | 396 kts | 154° |
| 2026-04-25 22:51 | -42.18807 | 147.09547 | 16160 ft | 397 kts | 139° |
| 2026-04-25 22:51 | -42.20790 | 147.12040 | 15726 ft | 393 kts | 138° |
| 2026-04-25 22:51 | -42.22763 | 147.14583 | 15274 ft | 391 kts | 138° |
| 2026-04-25 22:51 | -42.24743 | 147.17116 | 14799 ft | 389 kts | 139° |
| 2026-04-25 22:52 | -42.26719 | 147.19604 | 14352 ft | 386 kts | 140° |
| 2026-04-25 22:52 | -42.28690 | 147.22057 | 13918 ft | 384 kts | 140° |
| 2026-04-25 22:52 | -42.29990 | 147.23671 | 13548 ft | 383 kts | 140° |
| 2026-04-25 22:52 | -42.31966 | 147.26057 | 13076 ft | 378 kts | 145° |
| 2026-04-25 22:53 | -42.34160 | 147.27922 | 12774 ft | 368 kts | 155° |
| 2026-04-25 22:53 | -42.37151 | 147.30068 | 12355 ft | 366 kts | 156° |
| 2026-04-25 22:53 | -42.38668 | 147.31145 | 12153 ft | 364 kts | 156° |
| 2026-04-25 22:53 | -42.40902 | 147.32756 | 11848 ft | 363 kts | 155° |
| 2026-04-25 22:54 | -42.43096 | 147.34369 | 11543 ft | 365 kts | 155° |
| 2026-04-25 22:54 | -42.45320 | 147.36027 | 11237 ft | 363 kts | 155° |
| 2026-04-25 22:54 | -42.46761 | 147.37108 | 11035 ft | 359 kts | 154° |
| 2026-04-25 22:54 | -42.48922 | 147.38733 | 10731 ft | 352 kts | 155° |
| 2026-04-25 22:55 | -42.51047 | 147.40332 | 10431 ft | 346 kts | 154° |
| 2026-04-25 22:55 | -42.53131 | 147.41901 | 10141 ft | 340 kts | 155° |
| 2026-04-25 22:55 | -42.55167 | 147.43433 | 10099 ft | 327 kts | 155° |
| 2026-04-25 22:55 | -42.57121 | 147.44905 | 10055 ft | 315 kts | 155° |
| 2026-04-25 22:56 | -42.59009 | 147.46336 | 9870 ft | 309 kts | 153° |
| 2026-04-25 22:56 | -42.60768 | 147.48032 | 9549 ft | 311 kts | 143° |
| 2026-04-25 22:56 | -42.62407 | 147.49940 | 9215 ft | 308 kts | 141° |
| 2026-04-25 22:56 | -42.64006 | 147.51855 | 8765 ft | 306 kts | 141° |
| 2026-04-25 22:57 | -42.65614 | 147.53750 | 8194 ft | 307 kts | 142° |
| 2026-04-25 22:57 | -42.67242 | 147.55627 | 7893 ft | 306 kts | 142° |
| 2026-04-25 22:57 | -42.68873 | 147.57491 | 7617 ft | 305 kts | 142° |
| 2026-04-25 22:57 | -42.70496 | 147.59340 | 7344 ft | 303 kts | 142° |
| 2026-04-25 22:58 | -42.72107 | 147.61178 | 7093 ft | 301 kts | 143° |
| 2026-04-25 22:58 | -42.73707 | 147.63004 | 6846 ft | 300 kts | 142° |
| 2026-04-25 22:58 | -42.75307 | 147.64831 | 6546 ft | 299 kts | 142° |
| 2026-04-25 22:58 | -42.76868 | 147.66615 | 6322 ft | 295 kts | 143° |
| 2026-04-25 22:59 | -42.78434 | 147.68406 | 6056 ft | 293 kts | 142° |
| 2026-04-25 22:59 | -42.79991 | 147.70187 | 5809 ft | 292 kts | 143° |
| 2026-04-25 22:59 | -42.81543 | 147.71962 | 5552 ft | 291 kts | 143° |
| 2026-04-25 22:59 | -42.83090 | 147.73734 | 5309 ft | 289 kts | 142° |
| 2026-04-25 23:00 | -42.84672 | 147.75404 | 5033 ft | 285 kts | 156° |
| 2026-04-25 23:00 | -42.86489 | 147.76112 | 4791 ft | 263 kts | 185° |
| 2026-04-25 23:00 | -42.88222 | 147.75809 | 4577 ft | 242 kts | 206° |
| 2026-04-25 23:00 | -42.89730 | 147.74953 | 4371 ft | 230 kts | 214° |
| 2026-04-25 23:01 | -42.91133 | 147.74002 | 4161 ft | 220 kts | 216° |
| 2026-04-25 23:01 | -42.92260 | 147.72743 | 4030 ft | 204 kts | 243° |
| 2026-04-25 23:01 | -42.92789 | 147.70909 | 3367 ft | 216 kts | 268° |
| 2026-04-25 23:01 | -42.92853 | 147.68837 | 2867 ft | 217 kts | 274° |
| 2026-04-25 23:02 | -42.92850 | 147.66845 | 2608 ft | 207 kts | 274° |
| 2026-04-25 23:02 | -42.92796 | 147.64953 | 2397 ft | 190 kts | 287° |
| 2026-04-25 23:02 | -42.92291 | 147.63429 | 2211 ft | 167 kts | 303° |
| 2026-04-25 23:02 | -42.91629 | 147.62213 | 2015 ft | 153 kts | 311° |
| 2026-04-25 23:03 | -42.90968 | 147.61162 | 1827 ft | 137 kts | 314° |
| 2026-04-25 23:03 | -42.90324 | 147.60258 | 1643 ft | 130 kts | 316° |
| 2026-04-25 23:03 | -42.89690 | 147.59391 | 1471 ft | 130 kts | 314° |
| 2026-04-25 23:03 | -42.89050 | 147.58509 | 1293 ft | 133 kts | 318° |
| 2026-04-25 23:04 | -42.88370 | 147.57609 | 1133 ft | 140 kts | 317° |
| 2026-04-25 23:04 | -42.87677 | 147.56677 | 933 ft | 140 kts | 317° |
| 2026-04-25 23:04 | -42.86987 | 147.55745 | 734 ft | 139 kts | 317° |
| 2026-04-25 23:04 | -42.86305 | 147.54822 | 576 ft | 139 kts | 316° |
| 2026-04-25 23:05 | -42.85603 | 147.53882 | 409 ft | 144 kts | 315° |
| 2026-04-25 23:05 | -42.84903 | 147.52917 | 198 ft | 142 kts | 315° |
| 2026-04-25 23:05 | -42.84215 | 147.51986 | 29 ft | 133 kts | 314° |
| 2026-04-25 23:05 | -42.83610 | 147.51170 | 22 ft | 103 kts | 314° |
| 2026-04-25 23:06 | -42.83324 | 147.50770 | 21 ft | 28 kts | 296° |
| 2026-04-25 23:06 | -42.83351 | 147.50600 | 21 ft | 16 kts | 231° |
| 2026-04-25 23:06 | -42.83423 | 147.50555 | 23 ft | 10 kts | 160° |
| 2026-04-25 23:06 | -42.83475 | 147.50619 | 22 ft | 10 kts | 135° |
| 2026-04-25 23:07 | -42.83531 | 147.50691 | 23 ft | 13 kts | 148° |
| 2026-04-25 23:07 | -42.83590 | 147.50673 | 23 ft | 7 kts | 224° |
| 2026-04-25 23:07 | -42.83636 | 147.50668 | 21 ft | 8 kts | 167° |
| 2026-04-25 23:07 | -42.83675 | 147.50635 | 22 ft | 4 kts | 225° |
| 2026-04-25 23:08 | -42.83684 | 147.50623 | 21 ft | 0 kts | 225° |